createdAt,value
2022-12-08T00:00:56.677Z,23.40
2022-12-08T00:03:29.898Z,23.70
2022-12-08T00:06:20.978Z,25.60
2022-12-08T00:09:11.317Z,24.10
2022-12-08T00:11:43.848Z,26.30
2022-12-08T00:14:16.389Z,31.20
2022-12-08T00:16:49.223Z,30.80
2022-12-08T00:19:22.059Z,28.10
2022-12-08T00:21:55.721Z,22.60
2022-12-08T00:24:34.733Z,15.10
2022-12-08T00:27:07.980Z,20.40
2022-12-08T00:29:41.234Z,23.20
2022-12-08T00:32:13.857Z,25.70
2022-12-08T00:34:46.564Z,22.20
2022-12-08T00:37:19.049Z,26.50
2022-12-08T00:39:51.731Z,24.20
2022-12-08T00:42:24.203Z,27.90
2022-12-08T00:44:56.688Z,29.30
2022-12-08T00:47:29.944Z,23.20
2022-12-08T00:50:02.783Z,24.20
2022-12-08T00:52:35.541Z,22.30
2022-12-08T00:55:10.186Z,29.50
2022-12-08T00:57:42.711Z,29.10
2022-12-08T01:00:17.594Z,28.20
2022-12-08T01:02:50.162Z,23.20
2022-12-08T01:05:22.917Z,22.70
2022-12-08T01:07:55.417Z,22.40
2022-12-08T01:10:28.103Z,23.10
2022-12-08T01:13:00.925Z,23.10
2022-12-08T01:15:33.382Z,19.40
2022-12-08T01:18:05.987Z,21.50
2022-12-08T01:20:38.399Z,20.90
2022-12-08T01:23:10.979Z,17.90
2022-12-08T01:25:43.765Z,30.50
2022-12-08T01:28:16.425Z,35.70
2022-12-08T01:30:49.033Z,21.70
2022-12-08T01:33:21.534Z,20.80
2022-12-08T01:35:55.506Z,20.60
2022-12-08T01:38:27.993Z,19.50
2022-12-08T01:41:00.736Z,22.90
2022-12-08T01:44:02.378Z,22.20
2022-12-08T01:46:37.562Z,22.80
2022-12-08T01:49:15.206Z,19.90
2022-12-08T01:51:55.862Z,21.50
2022-12-08T01:54:43.037Z,21.40
2022-12-08T01:57:21.782Z,18.90
2022-12-08T02:00:00.513Z,25.10
2022-12-08T02:02:41.029Z,28.50
2022-12-08T02:05:15.168Z,25.60
2022-12-08T02:07:49.715Z,21.80
2022-12-08T02:10:29.612Z,22.10
2022-12-08T02:13:04.496Z,16.50
2022-12-08T02:15:50.201Z,20.20
2022-12-08T02:18:50.500Z,21.60
2022-12-08T02:21:39.310Z,21.10
2022-12-08T02:24:24.577Z,26.30
2022-12-08T02:27:42.502Z,23.50
2022-12-08T02:30:45.071Z,22.80
2022-12-08T02:33:56.698Z,21.60
2022-12-08T02:36:38.491Z,21.30
2022-12-08T02:39:28.346Z,20.40
2022-12-08T02:42:13.571Z,19.10
2022-12-08T02:44:54.100Z,22.60
2022-12-08T02:47:30.737Z,18.30
2022-12-08T02:50:03.960Z,20.20
2022-12-08T02:52:48.672Z,25.80
2022-12-08T02:55:29.728Z,21.20
2022-12-08T02:58:47.889Z,24.40
2022-12-08T03:01:41.656Z,22.10
2022-12-08T03:04:29.381Z,19.50
2022-12-08T03:07:08.478Z,19.60
2022-12-08T03:09:47.584Z,21.40
2022-12-08T03:12:27.534Z,18.40
2022-12-08T03:15:05.999Z,17.90
2022-12-08T03:17:42.465Z,17.50
2022-12-08T03:20:22.725Z,17.10
2022-12-08T03:23:00.268Z,18.20
2022-12-08T03:25:39.725Z,26.70
2022-12-08T03:28:13.006Z,22.50
2022-12-08T03:30:50.100Z,18.90
2022-12-08T03:33:28.197Z,16.10
2022-12-08T03:36:03.577Z,19.90
2022-12-08T03:38:44.877Z,18.50
2022-12-08T03:41:20.512Z,17.90
2022-12-08T03:43:55.913Z,17.50
2022-12-08T03:46:31.742Z,17.10
2022-12-08T03:49:04.426Z,18.20
2022-12-08T03:51:36.866Z,23.40
2022-12-08T03:54:09.562Z,17.00
2022-12-08T03:56:43.677Z,18.50
2022-12-08T03:59:16.911Z,19.40
2022-12-08T04:01:49.474Z,19.10
2022-12-08T04:04:21.971Z,20.80
2022-12-08T04:06:54.566Z,20.80
2022-12-08T04:09:27.657Z,17.50
2022-12-08T04:12:00.122Z,17.60
2022-12-08T04:14:33.039Z,27.80
2022-12-08T04:17:05.681Z,26.30
2022-12-08T04:19:38.115Z,19.50
2022-12-08T04:22:10.619Z,33.10
2022-12-08T04:24:43.170Z,31.40
2022-12-08T04:27:15.563Z,24.40
2022-12-08T04:29:48.253Z,20.70
2022-12-08T04:32:20.830Z,28.10
2022-12-08T04:34:53.506Z,25.50
2022-12-08T04:37:26.260Z,20.10
2022-12-08T04:39:58.842Z,22.20
2022-12-08T04:42:31.416Z,19.20
2022-12-08T04:45:04.095Z,17.70
2022-12-08T04:47:36.776Z,16.90
2022-12-08T04:50:11.769Z,17.40
2022-12-08T04:52:44.323Z,21.60
2022-12-08T04:55:16.905Z,18.00
2022-12-08T04:57:49.925Z,22.40
2022-12-08T05:00:24.166Z,19.80
2022-12-08T05:02:57.306Z,22.50
2022-12-08T05:05:30.044Z,19.10
2022-12-08T05:08:02.639Z,17.90
2022-12-08T05:10:35.369Z,18.40
2022-12-08T05:13:07.740Z,17.30
2022-12-08T05:15:40.232Z,16.50
2022-12-08T05:18:13.607Z,20.90
2022-12-08T05:20:45.974Z,14.70
2022-12-08T05:23:18.842Z,24.20
2022-12-08T05:25:51.826Z,21.40
2022-12-08T05:28:41.738Z,16.70
2022-12-08T05:31:17.198Z,14.80
2022-12-08T05:33:52.222Z,17.80
2022-12-08T05:36:25.795Z,15.90
2022-12-08T05:39:01.450Z,15.50
2022-12-08T05:41:34.278Z,14.70
2022-12-08T05:44:07.501Z,16.20
2022-12-08T05:46:40.413Z,21.50
2022-12-08T05:49:13.188Z,21.10
2022-12-08T05:51:45.767Z,16.50
2022-12-08T05:54:18.248Z,17.10
2022-12-08T05:56:50.618Z,16.80
2022-12-08T05:59:23.218Z,17.40
2022-12-08T06:01:56.080Z,16.60
2022-12-08T06:04:28.577Z,18.80
2022-12-08T06:07:01.792Z,19.70
2022-12-08T06:09:34.589Z,25.50
2022-12-08T06:12:08.249Z,24.00
2022-12-08T06:14:40.951Z,22.10
2022-12-08T06:17:13.895Z,16.70
2022-12-08T06:19:46.339Z,19.50
2022-12-08T06:22:19.056Z,17.30
2022-12-08T06:24:51.756Z,16.40
2022-12-08T06:27:24.309Z,16.20
2022-12-08T06:29:57.812Z,17.70
2022-12-08T06:32:30.268Z,16.70
2022-12-08T06:35:03.081Z,15.90
2022-12-08T06:37:35.750Z,20.40
2022-12-08T06:40:11.709Z,19.20
2022-12-08T06:42:47.395Z,19.60
2022-12-08T06:45:21.609Z,18.60
2022-12-08T06:47:54.118Z,16.70
2022-12-08T06:50:26.743Z,15.60
2022-12-08T06:53:05.176Z,13.50
2022-12-08T06:58:30.992Z,13.20
2022-12-08T07:01:09.887Z,13.60
2022-12-08T07:03:44.403Z,14.10
2022-12-08T07:06:23.539Z,18.80
2022-12-08T07:08:55.986Z,16.70
2022-12-08T07:11:28.457Z,18.60
2022-12-08T07:14:01.321Z,14.40
2022-12-08T07:16:33.934Z,25.30
2022-12-08T07:19:06.561Z,20.00
2022-12-08T07:21:39.015Z,17.80
2022-12-08T07:24:12.772Z,18.30
2022-12-08T07:26:45.600Z,27.50
2022-12-08T07:29:23.014Z,21.80
2022-12-08T07:31:58.383Z,19.30
2022-12-08T07:34:31.036Z,17.70
2022-12-08T07:37:03.634Z,17.80
2022-12-08T07:39:36.156Z,18.60
2022-12-08T07:42:09.106Z,18.70
2022-12-08T07:44:42.635Z,18.00
2022-12-08T07:47:15.158Z,18.50
2022-12-08T07:49:47.739Z,18.30
2022-12-08T07:52:20.253Z,26.70
2022-12-08T07:54:53.398Z,20.00
2022-12-08T07:57:25.801Z,17.30
2022-12-08T07:59:58.350Z,17.30
2022-12-08T08:02:30.988Z,19.50
2022-12-08T08:05:04.473Z,18.40
2022-12-08T08:07:37.573Z,18.20
2022-12-08T08:10:13.708Z,21.70
2022-12-08T08:12:46.308Z,20.90
2022-12-08T08:15:21.475Z,19.90
2022-12-08T08:17:55.939Z,18.10
2022-12-08T08:20:28.802Z,16.50
2022-12-08T08:23:01.281Z,18.20
2022-12-08T08:25:33.891Z,16.20
2022-12-08T08:28:06.471Z,18.70
2022-12-08T08:30:39.012Z,17.50
2022-12-08T08:33:11.902Z,16.60
2022-12-08T08:35:44.485Z,14.80
2022-12-08T08:38:17.147Z,13.30
2022-12-08T08:40:49.683Z,15.30
2022-12-08T08:43:37.741Z,19.50
2022-12-08T08:46:11.472Z,22.70
2022-12-08T08:48:44.162Z,15.90
2022-12-08T08:51:17.867Z,15.20
2022-12-08T08:53:50.426Z,16.60
2022-12-08T08:56:23.453Z,19.20
2022-12-08T08:58:57.449Z,15.90
2022-12-08T09:01:31.655Z,15.50
2022-12-08T09:04:04.392Z,13.30
2022-12-08T09:06:37.266Z,13.90
2022-12-08T09:09:10.396Z,12.40
2022-12-08T09:11:43.001Z,20.30
2022-12-08T09:14:17.215Z,18.80
2022-12-08T09:16:49.617Z,14.10
2022-12-08T09:19:22.294Z,12.20
2022-12-08T09:21:54.916Z,10.40
2022-12-08T09:24:27.357Z,9.80
2022-12-08T09:26:59.894Z,9.60
2022-12-08T09:29:36.190Z,11.30
2022-12-08T09:32:10.633Z,11.40
2022-12-08T09:34:45.377Z,12.00
2022-12-08T09:37:21.717Z,9.40
2022-12-08T09:39:54.254Z,11.60
2022-12-08T09:42:39.923Z,16.30
2022-12-08T09:45:18.294Z,19.20
2022-12-08T09:48:02.196Z,19.30
2022-12-08T09:50:40.564Z,17.20
2022-12-08T09:53:20.645Z,20.20
2022-12-08T09:55:57.445Z,18.00
2022-12-08T09:58:44.408Z,21.80
2022-12-08T10:01:17.391Z,27.50
2022-12-08T10:03:50.362Z,25.80
2022-12-08T10:06:33.305Z,27.40
2022-12-08T10:09:27.022Z,23.90
2022-12-08T10:12:06.848Z,20.60
2022-12-08T10:14:44.229Z,19.30
2022-12-08T10:17:24.845Z,20.20
2022-12-08T10:20:05.368Z,15.80
2022-12-08T10:22:44.552Z,17.50
2022-12-08T10:25:24.761Z,19.90
2022-12-08T10:27:59.601Z,23.30
2022-12-08T10:30:34.467Z,20.30
2022-12-08T10:33:10.931Z,20.70
2022-12-08T10:35:56.395Z,17.30
2022-12-08T10:38:34.072Z,19.50
2022-12-08T10:41:14.054Z,18.40
2022-12-08T10:43:50.883Z,22.90
2022-12-08T10:46:26.519Z,21.10
2022-12-08T10:49:13.582Z,19.80
2022-12-08T10:51:46.732Z,25.50
2022-12-08T10:54:35.853Z,21.90
2022-12-08T10:57:20.967Z,25.70
2022-12-08T10:59:57.155Z,21.00
2022-12-08T11:02:29.728Z,22.40
2022-12-08T11:05:03.265Z,21.50
2022-12-08T11:07:36.703Z,20.50
2022-12-08T11:10:20.716Z,18.20
2022-12-08T11:12:53.488Z,16.00
2022-12-08T11:15:26.521Z,16.80
2022-12-08T11:18:12.075Z,20.50
2022-12-08T11:20:45.961Z,17.70
2022-12-08T11:23:28.855Z,15.60
2022-12-08T11:26:12.997Z,16.70
2022-12-08T11:28:46.282Z,14.20
2022-12-08T11:31:31.720Z,15.60
2022-12-08T11:34:06.799Z,14.10
2022-12-08T11:36:40.797Z,13.50
2022-12-08T11:39:15.786Z,16.70
2022-12-08T11:41:49.936Z,14.80
2022-12-08T11:44:35.196Z,18.10
2022-12-08T11:47:13.795Z,16.00
2022-12-08T11:49:48.487Z,16.90
2022-12-08T11:52:29.092Z,13.80
2022-12-08T11:55:18.227Z,13.70
2022-12-08T11:57:51.829Z,14.20
2022-12-08T12:00:25.390Z,17.20
2022-12-08T12:03:06.077Z,14.10
2022-12-08T12:06:13.036Z,14.90
2022-12-08T12:09:05.622Z,15.30
2022-12-08T12:12:09.125Z,15.10
2022-12-08T12:15:18.366Z,14.60
2022-12-08T12:17:56.430Z,19.10
2022-12-08T12:20:35.054Z,18.20
2022-12-08T12:23:17.022Z,16.00
2022-12-08T12:26:02.237Z,21.80
2022-12-08T12:28:49.828Z,17.80
2022-12-08T12:31:26.831Z,20.20
2022-12-08T12:34:13.717Z,19.60
2022-12-08T12:36:56.680Z,17.70
2022-12-08T12:39:35.309Z,18.80
2022-12-08T12:42:09.085Z,18.20
2022-12-08T12:44:47.352Z,17.30
2022-12-08T12:47:56.299Z,19.20
2022-12-08T12:50:47.421Z,17.60
2022-12-08T12:53:53.459Z,17.90
2022-12-08T12:56:56.623Z,13.90
2022-12-08T12:59:51.627Z,16.90
2022-12-08T13:02:34.352Z,16.90
2022-12-08T13:05:17.524Z,15.50
2022-12-08T13:07:57.088Z,15.20
2022-12-08T13:10:33.662Z,17.00
2022-12-08T13:13:20.041Z,14.60
2022-12-08T13:16:09.998Z,14.50
2022-12-08T13:18:53.584Z,17.90
2022-12-08T13:21:33.410Z,14.70
2022-12-08T13:24:33.435Z,17.30
2022-12-08T13:27:52.585Z,18.90
2022-12-08T13:30:47.980Z,15.10
2022-12-08T13:33:27.129Z,19.90
2022-12-08T13:36:12.887Z,22.10
2022-12-08T13:38:52.937Z,22.40
2022-12-08T13:41:37.037Z,22.60
2022-12-08T13:47:33.927Z,20.40
2022-12-08T13:51:51.212Z,22.20
2022-12-08T13:53:49.676Z,21.00
2022-12-08T13:59:33.559Z,21.20
2022-12-08T14:02:25.360Z,18.20
2022-12-08T14:07:55.915Z,18.40
2022-12-08T14:10:33.551Z,21.10
2022-12-08T14:13:12.480Z,18.10
2022-12-08T14:15:45.079Z,22.70
2022-12-08T14:18:30.223Z,20.40
2022-12-08T14:21:21.782Z,22.10
2022-12-08T14:23:54.483Z,22.30
2022-12-08T14:26:27.233Z,20.70
2022-12-08T14:29:00.267Z,17.70
2022-12-08T14:31:33.291Z,19.10
2022-12-08T14:34:06.148Z,18.10
2022-12-08T14:36:38.685Z,17.50
2022-12-08T14:39:12.461Z,18.60
2022-12-08T14:42:01.893Z,21.00
2022-12-08T14:44:39.539Z,21.60
2022-12-08T14:47:20.968Z,18.70
2022-12-08T14:49:53.592Z,19.50
2022-12-08T14:52:26.582Z,27.00
2022-12-08T14:55:00.446Z,27.60
2022-12-08T14:57:38.974Z,22.60
2022-12-08T15:00:25.493Z,24.50
2022-12-08T15:02:58.928Z,22.80
2022-12-08T15:05:39.268Z,21.70
2022-12-08T15:08:13.986Z,21.50
2022-12-08T15:10:48.325Z,21.20
2022-12-08T15:13:27.544Z,20.80
2022-12-08T15:16:02.847Z,20.90
2022-12-08T15:18:42.329Z,21.20
2022-12-08T15:21:15.730Z,22.60
2022-12-08T15:23:52.264Z,24.30
2022-12-08T15:26:27.962Z,25.40
2022-12-08T15:29:10.787Z,25.90
2022-12-08T15:31:43.289Z,26.00
2022-12-08T15:34:16.103Z,23.70
2022-12-08T15:36:50.358Z,25.70
2022-12-08T15:39:34.955Z,26.60
2022-12-08T15:42:13.663Z,26.90
2022-12-08T15:44:46.924Z,26.20
2022-12-08T15:47:23.651Z,29.20
2022-12-08T15:49:56.750Z,30.50
2022-12-08T15:52:29.666Z,29.30
2022-12-08T15:55:02.101Z,33.50
2022-12-08T15:58:17.413Z,37.40
2022-12-08T16:00:52.825Z,28.00
2022-12-08T16:09:30.674Z,24.70
2022-12-08T16:12:21.716Z,26.00
2022-12-08T16:17:46.889Z,27.10
2022-12-08T16:20:28.224Z,31.70
2022-12-08T16:23:26.782Z,30.30
2022-12-08T16:28:56.340Z,31.20
2022-12-08T16:31:29.109Z,29.20
2022-12-08T16:34:01.809Z,30.80
2022-12-08T16:36:34.896Z,31.30
2022-12-08T16:39:08.667Z,30.10
2022-12-08T16:41:58.803Z,25.20
2022-12-08T16:44:31.270Z,22.90
2022-12-08T16:47:11.302Z,22.20
2022-12-08T16:49:44.025Z,27.30
2022-12-08T16:52:17.671Z,28.60
2022-12-08T16:54:50.188Z,26.70
2022-12-08T16:57:22.858Z,31.90
2022-12-08T16:59:55.371Z,32.40
2022-12-08T17:02:27.831Z,30.20
2022-12-08T17:05:00.326Z,29.20
2022-12-08T17:07:33.133Z,23.20
2022-12-08T17:10:08.639Z,23.30
2022-12-08T17:12:41.747Z,27.00
2022-12-08T17:15:21.431Z,26.80
2022-12-08T17:17:54.742Z,26.00
2022-12-08T17:20:32.495Z,38.50
2022-12-08T17:23:04.926Z,25.30
2022-12-08T17:25:37.701Z,31.30
2022-12-08T17:28:10.393Z,34.40
2022-12-08T17:30:42.836Z,25.60
2022-12-08T17:33:15.384Z,25.30
2022-12-08T17:35:54.870Z,23.40
2022-12-08T17:38:28.428Z,25.10
2022-12-08T17:41:07.554Z,24.00
2022-12-08T17:43:40.489Z,31.40
2022-12-08T17:46:17.638Z,31.50
2022-12-08T17:48:50.664Z,51.30
2022-12-08T17:51:23.380Z,46.40
2022-12-08T17:53:56.428Z,33.40
2022-12-08T17:56:29.177Z,28.00
2022-12-08T17:59:03.393Z,31.90
2022-12-08T18:01:36.187Z,29.80
2022-12-08T18:04:11.084Z,26.90
2022-12-08T18:06:44.169Z,31.50
2022-12-08T18:09:16.954Z,32.50
2022-12-08T18:11:50.219Z,39.30
2022-12-08T18:14:22.895Z,35.10
2022-12-08T18:16:55.718Z,39.40
2022-12-08T18:19:28.507Z,38.80
2022-12-08T18:22:01.074Z,36.00
2022-12-08T18:24:33.696Z,34.00
2022-12-08T18:27:06.388Z,36.30
2022-12-08T18:29:38.804Z,31.30
2022-12-08T18:32:11.726Z,35.20
2022-12-08T18:34:44.462Z,31.60
2022-12-08T18:37:17.011Z,36.30
2022-12-08T18:39:51.024Z,34.90
2022-12-08T18:42:28.241Z,32.30
2022-12-08T18:45:04.352Z,58.30
2022-12-08T18:47:40.661Z,48.00
2022-12-08T18:50:15.249Z,30.30
2022-12-08T18:52:49.568Z,30.50
2022-12-08T18:55:22.518Z,31.60
2022-12-08T18:57:55.118Z,29.20
2022-12-08T19:00:27.879Z,30.90
2022-12-08T19:03:00.455Z,33.70
2022-12-08T19:05:33.084Z,32.90
2022-12-08T19:08:06.123Z,32.30
2022-12-08T19:10:40.626Z,36.20
2022-12-08T19:13:14.119Z,34.30
2022-12-08T19:15:46.838Z,29.40
2022-12-08T19:18:19.502Z,28.60
2022-12-08T19:20:56.791Z,26.70
2022-12-08T19:23:29.533Z,26.60
2022-12-08T19:26:02.103Z,37.40
2022-12-08T19:28:36.093Z,35.80
2022-12-08T19:31:12.804Z,32.20
2022-12-08T19:33:45.444Z,30.10
2022-12-08T19:36:21.635Z,33.00
2022-12-08T19:39:12.331Z,29.00
2022-12-08T19:42:02.413Z,29.40
2022-12-08T19:44:53.647Z,28.20
2022-12-08T19:47:28.276Z,35.50
2022-12-08T19:50:14.592Z,32.80
2022-12-08T19:52:47.996Z,31.60
2022-12-08T19:55:21.303Z,27.90
2022-12-08T19:57:54.855Z,31.50
2022-12-08T20:00:27.549Z,33.20
2022-12-08T20:03:01.835Z,31.40
2022-12-08T20:05:36.979Z,29.80
2022-12-08T20:08:10.180Z,33.10
2022-12-08T20:10:45.593Z,36.80
2022-12-08T20:13:35.399Z,32.10
2022-12-08T20:16:09.939Z,32.40
2022-12-08T20:18:44.704Z,32.10
2022-12-08T20:21:17.654Z,29.40
2022-12-08T20:23:50.781Z,35.30
2022-12-08T20:26:25.457Z,29.20
2022-12-08T20:28:58.633Z,31.10
2022-12-08T20:31:34.564Z,36.80
2022-12-08T20:34:07.310Z,36.30
2022-12-08T20:36:39.882Z,36.80
2022-12-08T20:39:16.655Z,30.60
2022-12-08T20:41:50.093Z,34.00
2022-12-08T20:44:22.569Z,30.40
2022-12-08T20:46:55.442Z,32.70
2022-12-08T20:49:34.235Z,27.50
2022-12-08T20:52:07.980Z,30.90
2022-12-08T20:54:41.948Z,36.00
2022-12-08T20:57:14.502Z,33.90
2022-12-08T20:59:47.203Z,30.00
2022-12-08T21:02:19.802Z,32.60
2022-12-08T21:04:52.851Z,34.20
2022-12-08T21:07:25.793Z,29.80
2022-12-08T21:09:58.314Z,31.50
2022-12-08T21:12:32.300Z,30.00
2022-12-08T21:15:07.409Z,36.40
2022-12-08T21:17:40.408Z,38.10
2022-12-08T21:20:14.513Z,35.10
2022-12-08T21:22:47.052Z,31.40
2022-12-08T21:25:19.813Z,33.80
2022-12-08T21:27:52.559Z,31.60
2022-12-08T21:30:25.442Z,32.90
2022-12-08T21:32:58.404Z,30.40
2022-12-08T21:35:31.498Z,39.90
2022-12-08T21:38:05.247Z,37.50
2022-12-08T21:40:38.474Z,32.00
2022-12-08T21:43:11.260Z,33.00
2022-12-08T21:45:43.988Z,32.30
2022-12-08T21:48:16.551Z,27.30
2022-12-08T21:50:49.359Z,33.10
2022-12-08T21:53:22.566Z,32.90
2022-12-08T21:55:55.509Z,36.30
2022-12-08T21:58:28.193Z,38.60
2022-12-08T22:01:05.694Z,36.20
2022-12-08T22:03:39.399Z,32.90
2022-12-08T22:06:15.211Z,37.40
2022-12-08T22:08:48.348Z,35.30
2022-12-08T22:11:21.498Z,33.30
2022-12-08T22:13:54.172Z,33.80
2022-12-08T22:16:27.332Z,41.00
2022-12-08T22:19:00.757Z,39.60
2022-12-08T22:21:33.585Z,58.00
2022-12-08T22:24:06.737Z,69.80
2022-12-08T22:26:39.315Z,59.40
2022-12-08T22:29:11.907Z,52.70
2022-12-08T22:31:45.239Z,47.20
2022-12-08T22:34:17.710Z,50.40
2022-12-08T22:36:50.261Z,53.80
2022-12-08T22:39:22.915Z,48.00
2022-12-08T22:41:55.603Z,44.50
2022-12-08T22:44:28.198Z,43.80
2022-12-08T22:47:00.898Z,39.40
2022-12-08T22:49:34.324Z,36.60
2022-12-08T22:52:07.664Z,37.30
2022-12-08T22:54:40.509Z,35.40
2022-12-08T22:57:13.226Z,48.40
2022-12-08T22:59:46.038Z,43.80
2022-12-08T23:02:18.587Z,34.10
2022-12-08T23:04:51.859Z,35.30
2022-12-08T23:07:24.343Z,38.20
2022-12-08T23:09:57.558Z,36.30
2022-12-08T23:12:30.145Z,34.10
2022-12-08T23:15:03.158Z,35.60
2022-12-08T23:17:36.020Z,39.60
2022-12-08T23:20:11.861Z,35.90
2022-12-08T23:22:44.655Z,33.10
2022-12-08T23:25:18.536Z,34.00
2022-12-08T23:27:51.522Z,31.60
2022-12-08T23:30:24.451Z,29.50
2022-12-08T23:33:00.605Z,32.60
2022-12-08T23:35:33.206Z,34.80
2022-12-08T23:38:05.586Z,33.60
2022-12-08T23:40:38.031Z,26.40
2022-12-08T23:43:10.699Z,29.50
2022-12-08T23:45:43.443Z,28.60
2022-12-08T23:48:16.285Z,26.00
2022-12-08T23:50:49.526Z,29.40
2022-12-08T23:53:22.048Z,26.10
2022-12-08T23:56:01.872Z,33.20
2022-12-08T23:58:36.302Z,28.40
